Terminal Aerodrome Forecast
Issued by NWS Austin/San Antonio, TX

Home | Current Version | Previous Version | Text Only | Print | Product List | Glossary On
Versions: 1 2 3 4 5 6 7 8 9 10 11 12
514
FTUS44 KEWX 071130
TAFDRT
TAF
KDRT 071130Z 0712/0812 08008KT P6SM FEW250
     FM071600 15008KT P6SM FEW250
     FM080100 VRB03KT P6SM FEW250
     FM080600 34012KT P6SM FEW250=

USA.gov is the U.S. government's official web portal to all federal, state and local government web resources and services.